Latest Weather Observations for Burketown Airport

IDQ60801

Issued at 6:35 pm EST Saturday 25 October 2014 (issued every 30 minutes, with the page automatically refreshed every 10 minutes)

About weather observations | Map of weather stations | Latest weather observations for QLD | Other Formats
Station Details ID: 029077 Name: BURKETOWN AIRPORT Lat: -17.75 Lon: 139.54 Height: 5.7 m
Data from the previous 72 hours. | See also: Recent months at Burketown Airport
Date/Time
EST
Temp
°C
App
Temp
°C
Dew
Point
Rel
Hum
%
Delta-T
°C
Wind Press
QNH
hPa
Press
MSL
hPa
Rain
since 9 am
mm
Dir
 
Spd
km/h
Gust
km/h
Spd
kts
Gust
kts
25/06:30pm 29.1 25.9 11.2 33 10.3 N 19 24 10 13 1012.8 - 0.0
25/06:00pm 30.5 27.2 11.5 31 11.0 N 20 28 11 15 1012.5 1012.4 0.0
25/05:30pm 31.7 27.9 11.0 28 12.0 N 22 30 12 16 1012.4 - 0.0
25/05:00pm 32.1 28.7 11.3 28 12.1 N 20 28 11 15 1012.2 - 0.0
25/04:30pm 33.3 30.3 11.8 27 12.7 N 19 26 10 14 1012.2 - 0.0
25/04:00pm 32.4 28.5 12.1 29 12.0 N 24 35 13 19 1012.5 - 0.0
25/03:30pm 32.4 28.3 11.6 28 12.2 N 24 33 13 18 1012.7 - 0.0
25/03:00pm 32.6 29.4 11.2 27 12.5 NNW 19 28 10 15 1013.2 1013.1 0.0
25/02:30pm 33.1 29.4 11.6 27 12.6 N 22 32 12 17 1013.7 - 0.0
25/02:00pm 31.8 28.9 11.0 28 12.0 NE 17 24 9 13 1014.3 - 0.0
25/01:30pm 32.6 29.5 12.3 29 12.0 NNE 20 33 11 18 1014.7 - 0.0
25/01:00pm 33.0 29.9 11.5 27 12.6 NNE 19 32 10 17 1015.1 - 0.0
25/12:30pm 32.6 29.2 10.6 26 12.7 N 19 30 10 16 1015.7 - 0.0
25/12:00pm 32.1 28.6 10.2 26 12.5 NNE 19 28 10 15 1016.4 1016.3 0.0
25/11:30am 31.9 29.0 12.2 30 11.6 NE 19 30 10 16 1016.9 - 0.0
25/11:00am 31.6 27.9 11.4 29 11.8 NE 22 32 12 17 1017.4 - 0.0
25/10:30am 31.3 28.5 13.1 33 10.9 NE 20 30 11 16 1017.8 - 0.0
25/10:00am 31.2 28.8 16.4 41 9.3 NE 24 35 13 19 1018.1 - 0.0
25/09:30am 29.7 26.7 16.8 45 8.1 NE 28 35 15 19 1018.2 - 0.0
25/09:00am 29.2 26.7 18.9 53 6.6 NE 30 43 16 23 1018.1 1018.0 0.0
25/08:30am 29.3 27.6 19.9 57 6.2 NNE 28 39 15 21 1018.0 - 0.0
25/08:00am 28.2 25.8 20.0 61 5.4 NNE 32 44 17 24 1017.5 - 0.0
25/07:30am 27.5 26.2 21.3 69 4.1 NNE 30 39 16 21 1017.0 - 0.0
25/07:22am 27.1 26.2 21.4 71 3.8 NNE 28 39 15 21 1017.0 - 0.0
25/07:00am 23.2 23.6 16.3 65 4.2 E 9 11 5 6 1016.7 - 0.0
25/06:30am 20.9 21.3 14.8 68 3.6 SE 6 7 3 4 1016.2 - 0.0
25/06:00am 20.5 20.3 14.6 69 3.4 ESE 9 11 5 6 1015.6 1015.5 0.0
25/05:30am 20.9 20.3 14.5 67 3.7 ESE 11 13 6 7 1015.2 - 0.0
25/05:00am 21.3 20.0 14.7 66 3.9 ESE 15 17 8 9 1014.8 - 0.0
25/04:30am 21.0 19.7 14.9 68 3.6 ESE 15 20 8 11 1014.4 - 0.0
25/04:00am 20.6 20.5 14.9 70 3.3 E 9 13 5 7 1013.8 - 0.0
25/03:30am 19.5 19.4 13.2 67 3.6 S 6 9 3 5 1013.0 - 0.0
25/03:00am 19.0 18.5 13.8 72 3.0 W 9 11 5 6 1012.5 1012.4 0.0
25/02:30am 18.5 17.8 13.1 71 3.0 WNW 9 11 5 6 1012.9 - 0.0
25/02:00am 18.9 18.7 13.1 69 3.3 NW 6 9 3 5 1013.2 - 0.0
25/01:30am 20.5 20.0 13.7 65 3.9 W 9 11 5 6 1013.2 - 0.0
25/01:00am 20.2 19.6 13.6 66 3.8 W 9 11 5 6 1013.3 - 0.0
25/12:30am 20.4 19.5 13.8 66 3.8 W 11 13 6 7 1013.5 - 0.0
25/12:00am 20.6 19.3 13.6 64 4.0 W 13 15 7 8 1013.7 1013.6 0.0
 
Date/Time
EST
Temp
°C
App
Temp
°C
Dew
Point
Rel
Hum
%
Delta-T
°C
Wind Press
QNH
hPa
Press
MSL
hPa
Rain
since 9 am
mm
Dir
 
Spd
km/h
Gust
km/h
Spd
kts
Gust
kts
24/11:30pm 20.5 19.6 12.7 61 4.4 W 9 9 5 5 1013.9 - 0.0
24/11:00pm 21.7 21.5 13.6 60 4.7 NW 7 11 4 6 1014.2 - 0.0
24/10:30pm 21.2 20.6 13.4 61 4.5 WNW 9 11 5 6 1014.2 - 0.0
24/10:00pm 22.0 21.1 13.6 59 4.9 NW 11 11 6 6 1014.2 - 0.0
24/09:30pm 22.7 21.6 13.2 55 5.5 NNW 11 13 6 7 1013.7 - 0.0
24/09:00pm 22.6 20.9 12.5 53 5.7 NW 13 15 7 8 1013.5 1013.4 0.0
24/08:30pm 23.4 22.1 12.4 50 6.3 NW 11 13 6 7 1013.3 - 0.0
24/08:00pm 24.2 22.3 11.9 46 7.0 NW 13 13 7 7 1013.0 - 0.0
24/07:30pm 25.6 23.3 10.6 39 8.4 NNW 13 13 7 7 1012.9 - 0.0
24/07:00pm 27.4 25.0 10.2 34 9.6 N 13 15 7 8 1012.6 - 0.0
24/06:30pm 30.0 27.5 11.0 31 10.9 N 15 20 8 11 1012.4 - 0.0
24/06:00pm 31.3 28.6 11.7 30 11.5 N 17 20 9 11 1012.1 1012.0 0.0
24/05:30pm 31.9 29.0 12.2 30 11.6 N 19 24 10 13 1012.0 - 0.0
24/05:00pm 32.0 29.1 12.3 30 11.6 N 19 35 10 19 1012.0 - 0.0
24/04:30pm 32.1 30.0 12.3 29 11.7 N 15 24 8 13 1012.1 - 0.0
24/04:00pm 31.9 29.0 12.2 30 11.6 NNE 19 28 10 15 1012.5 - 0.0
24/03:30pm 32.5 29.9 13.2 31 11.6 NNE 19 32 10 17 1012.9 - 0.0
24/03:00pm 31.6 29.6 13.8 34 10.8 NNE 17 26 9 14 1013.2 1013.1 0.0
24/02:30pm 31.1 28.2 15.1 38 9.8 NNE 24 32 13 17 1013.7 - 0.0
24/02:00pm 32.7 30.6 14.8 34 11.0 NE 19 32 10 17 1014.2 - 0.0
24/01:30pm 32.1 29.9 14.3 34 10.9 NE 19 30 10 16 1014.7 - 0.0
24/01:00pm 32.9 30.6 14.0 32 11.5 NE 19 30 10 16 1015.1 - 0.0
24/12:30pm 32.6 30.6 15.6 36 10.6 NNE 20 32 11 17 1015.6 - 0.0
24/12:00pm 31.8 29.7 16.1 38 9.8 NNE 22 33 12 18 1016.1 1016.0 0.0
24/11:30am 32.4 30.5 15.8 36 10.4 NE 20 32 11 17 1016.5 - 0.0
24/11:00am 29.7 26.6 16.5 45 8.2 NNE 28 43 15 23 1016.8 - 0.0
24/10:30am 30.9 28.2 17.6 45 8.5 NNE 28 37 15 20 1017.1 - 0.0
24/10:00am 31.1 28.8 18.5 47 8.1 NNE 28 39 15 21 1017.4 - 0.0
24/09:30am 29.9 27.0 18.0 48 7.6 NE 30 41 16 22 1017.4 - 0.0
24/09:00am 29.4 26.6 18.2 51 7.2 NE 30 39 16 21 1017.3 1017.2 0.0
24/08:30am 29.4 27.0 19.1 54 6.7 NNE 30 39 16 21 1017.2 - 0.0
24/08:00am 28.0 27.7 19.5 60 5.5 NNE 20 26 11 14 1016.7 - 0.0
24/07:30am 25.5 25.1 17.2 60 5.2 NE 15 20 8 11 1016.6 - 0.0
24/07:00am 23.2 22.9 15.5 62 4.6 ENE 11 15 6 8 1016.3 - 0.0
24/06:30am 21.5 20.6 14.9 66 3.9 ENE 13 17 7 9 1015.7 - 0.0
24/06:00am 20.9 19.9 14.5 67 3.7 ENE 13 17 7 9 1015.4 1015.3 0.0
24/05:30am 21.1 19.7 14.5 66 3.9 E 15 17 8 9 1015.0 - 0.0
24/05:00am 19.5 18.7 13.9 70 3.2 SE 11 11 6 6 1013.9 - 0.0
24/04:30am 19.8 19.7 14.0 69 3.3 SSW 7 9 4 5 1013.2 - 0.0
24/04:00am 19.7 19.5 12.9 65 3.8 SW 6 9 3 5 1012.9 - 0.0
24/03:30am 19.5 20.7 13.7 69 3.3 CALM 0 0 0 0 1012.8 - 0.0
24/03:00am 19.8 20.8 14.2 70 3.2 WSW 2 7 1 4 1012.8 1012.7 0.0
24/02:30am 19.5 19.0 13.7 69 3.3 W 9 11 5 6 1012.9 - 0.0
24/02:00am 20.5 20.5 13.5 64 4.0 W 6 9 3 5 1013.0 - 0.0
24/01:30am 20.6 21.5 14.0 66 3.8 WNW 2 7 1 4 1013.3 - 0.0
24/01:00am 21.1 21.3 14.3 65 4.0 W 6 9 3 5 1013.4 - 0.0
24/12:30am 21.6 22.3 14.5 64 4.2 NW 4 9 2 5 1013.8 - 0.0
24/12:00am 21.5 21.7 14.6 65 4.0 WNW 7 9 4 5 1013.8 1013.7 0.0
 
Date/Time
EST
Temp
°C
App
Temp
°C
Dew
Point
Rel
Hum
%
Delta-T
°C
Wind Press
QNH
hPa
Press
MSL
hPa
Rain
since 9 am
mm
Dir
 
Spd
km/h
Gust
km/h
Spd
kts
Gust
kts
23/11:30pm 21.9 21.4 14.8 64 4.2 WNW 11 13 6 7 1013.9 - 0.0
23/11:00pm 21.6 20.8 15.0 66 3.9 WNW 13 15 7 8 1013.9 - 0.0
23/10:30pm 22.6 22.8 15.7 65 4.1 NW 9 11 5 6 1014.1 - 0.0
23/10:00pm 23.3 22.9 17.1 68 3.8 WNW 15 17 8 9 1013.7 - 0.0
23/09:30pm 23.6 23.3 16.4 64 4.4 NNW 13 15 7 8 1013.7 - 0.0
23/09:00pm 24.0 23.1 15.8 60 5.0 NW 15 17 8 9 1013.3 1013.2 0.0
23/08:30pm 24.6 23.8 14.1 52 6.2 N 11 13 6 7 1013.1 - 0.0
23/08:00pm 25.4 24.2 12.9 45 7.3 N 11 13 6 7 1012.8 - 0.0
23/07:30pm 26.2 25.3 12.6 43 7.9 NNW 9 13 5 7 1012.6 - 0.0
23/07:00pm 28.4 26.9 13.1 39 9.0 N 13 15 7 8 1012.1 - 0.0
23/06:30pm 30.2 27.9 13.0 34 10.2 NNW 17 22 9 12 1012.0 - 0.0
23/06:00pm 31.6 29.1 13.4 33 10.9 N 19 24 10 13 1011.8 1011.7 0.0
23/05:30pm 32.4 29.6 13.1 31 11.6 N 20 26 11 14 1011.6 - 0.0
23/05:00pm 32.8 29.8 12.4 29 12.1 NNE 20 28 11 15 1011.5 - 0.0
23/04:30pm 32.8 30.3 12.4 29 12.1 NNE 17 24 9 13 1011.7 - 0.0
23/04:00pm 33.4 30.7 12.9 28 12.3 N 19 30 10 16 1011.7 - 0.0
23/03:30pm 33.4 30.1 12.9 28 12.3 N 22 28 12 15 1011.9 - 0.0
23/03:00pm 32.9 31.0 13.0 30 11.9 NNW 15 24 8 13 1012.4 1012.3 0.0
23/02:30pm 32.4 29.2 13.1 31 11.6 NNE 22 30 12 16 1012.8 - 0.0
23/02:00pm 31.9 29.1 12.7 31 11.4 N 19 28 10 15 1013.3 - 0.0
23/01:30pm 31.5 28.7 13.3 33 10.9 NNE 20 33 11 18 1013.9 - 0.0
23/01:00pm 32.1 29.5 13.3 31 11.3 NNE 19 30 10 16 1014.7 - 0.0
23/12:30pm 31.8 28.3 13.5 32 11.0 NE 24 33 13 18 1015.1 - 0.0
23/12:00pm 32.5 28.8 12.7 30 11.8 NE 24 35 13 19 1015.6 1015.5 0.0
23/11:30am 31.4 25.9 10.7 28 11.9 NE 30 39 16 21 1016.0 - 0.0
23/11:00am 31.6 26.0 11.4 29 11.8 NE 32 43 17 23 1016.4 - 0.0
23/10:30am 32.2 27.4 12.9 31 11.5 ENE 30 41 16 22 1016.7 - 0.0
23/10:00am 30.0 25.2 14.1 37 9.6 ENE 32 44 17 24 1017.0 - 0.0
23/09:30am 29.9 25.2 14.8 39 9.2 ENE 33 43 18 23 1017.2 - 0.0
23/09:00am 29.1 24.6 16.3 46 7.9 ENE 35 46 19 25 1017.1 1017.0 0.0
23/08:30am 29.4 26.2 18.2 51 7.2 NE 32 43 17 23 1017.0 - 0.0
23/08:00am 28.5 25.7 18.3 54 6.5 NE 30 43 16 23 1016.4 - 0.0
23/07:57am 28.3 26.1 18.7 56 6.2 NE 28 41 15 22 1016.4 - 0.0
23/07:30am 25.3 25.5 17.7 62 4.8 E 13 19 7 10 1016.2 - 0.0
23/07:00am 22.9 23.0 15.5 63 4.4 E 9 13 5 7 1015.6 - 0.0
23/06:30am 20.8 20.2 14.7 68 3.6 ESE 11 11 6 6 1015.2 - 0.0
23/06:00am 20.6 19.6 14.5 68 3.6 ESE 13 15 7 8 1015.0 1014.9 0.0
23/05:30am 20.4 20.1 15.4 73 3.0 ESE 11 15 6 8 1014.6 - 0.0
23/05:00am 20.5 20.1 15.3 72 3.1 E 11 13 6 7 1014.1 - 0.0
23/04:30am 20.2 20.5 14.6 70 3.3 ENE 6 13 3 7 1013.6 - 0.0
23/04:00am 19.7 19.5 13.6 68 3.5 ESE 7 13 4 7 1013.1 - 0.0
23/03:30am 19.0 20.0 13.2 69 3.3 CALM 0 0 0 0 1012.8 - 0.0
23/03:00am 19.9 21.0 13.4 66 3.7 CALM 0 0 0 0 1012.8 1012.7 0.0
23/02:30am 19.6 19.4 13.5 68 3.5 N 7 9 4 5 1013.1 - 0.0
23/02:00am 21.0 21.2 14.2 65 4.0 WNW 6 7 3 4 1013.4 - 0.0
23/01:30am 20.3 20.1 13.5 65 3.9 WNW 7 9 4 5 1013.8 - 0.0
23/01:00am 20.2 20.4 14.1 68 3.5 WNW 6 7 3 4 1014.1 - 0.0
23/12:30am 20.1 19.7 14.2 69 3.4 WNW 9 9 5 5 1014.3 - 0.0
23/12:00am 21.5 21.8 15.1 67 3.8 NW 7 9 4 5 1014.6 1014.5 0.0
 
Date/Time
EST
Temp
°C
App
Temp
°C
Dew
Point
Rel
Hum
%
Delta-T
°C
Wind Press
QNH
hPa
Press
MSL
hPa
Rain
since 9 am
mm
Dir
 
Spd
km/h
Gust
km/h
Spd
kts
Gust
kts
22/11:30pm 21.7 21.8 15.5 68 3.7 WNW 9 9 5 5 1014.6 - 0.0
22/11:00pm 22.6 23.8 16.9 70 3.5 WNW 6 9 3 5 1014.6 - 0.0
22/10:30pm 22.2 21.7 16.0 68 3.7 NW 13 15 7 8 1014.4 - 0.0
22/10:00pm 22.7 22.5 15.8 65 4.2 NW 11 13 6 7 1014.2 - 0.0
22/09:30pm 23.5 23.1 15.3 60 4.9 NNW 11 11 6 6 1014.1 - 0.0
22/09:00pm 24.1 23.3 13.9 53 6.0 NNW 11 15 6 8 1013.8 1013.7 0.0
22/08:30pm 24.7 22.9 12.0 45 7.2 NNW 13 15 7 8 1013.5 - 0.0
22/08:00pm 25.6 23.7 11.7 42 7.9 NNW 13 15 7 8 1013.2 - 0.0
22/07:30pm 26.6 24.6 11.5 39 8.6 NNW 13 15 7 8 1013.0 - 0.0
22/07:00pm 28.3 26.3 11.4 35 9.7 N 13 15 7 8 1012.8 - 0.0

Other Formats:

Comma delimited format used in spreadsheet applications
http://www.bom.gov.au/fwo/IDQ60801/IDQ60801.94260.axf

JavaScript Object Notation format (JSON) in row-major order
http://www.bom.gov.au/fwo/IDQ60801/IDQ60801.94260.json